PST,Max TemperatureF,Mean TemperatureF,Min TemperatureF,Max Dew PointF,MeanDew PointF,Min DewpointF,Max Humidity, Mean Humidity, Min Humidity, Max Sea Level PressureIn, Mean Sea Level PressureIn, Min Sea Level PressureIn, Max VisibilityMiles, Mean VisibilityMiles, Min VisibilityMiles, Max Wind SpeedMPH, Mean Wind SpeedMPH, Max Gust SpeedMPH,PrecipitationIn, CloudCover, Events, WindDirDegrees
2013-2-1,73,63,53,57,50,43,77,61,38,30.16,30.14,30.11,20,12,10,14,5,,0.00,3,,312
2013-2-2,73,64,55,54,49,43,77,56,36,30.30,30.18,30.11,20,12,10,9,3,,0.00,7,,285
2013-2-3,73,64,55,54,49,43,77,55,41,30.12,30.06,30.00,20,17,10,12,6,,0.00,3,,267
2013-2-4,64,58,53,57,55,54,100,88,77,30.11,30.04,29.99,7,5,2,14,7,,0.00,2,,303
2013-2-5,59,57,55,54,52,50,88,84,82,30.11,30.05,30.01,10,6,3,10,3,,0.00,8,,267
2013-2-6,62,60,55,54,51,50,88,75,63,30.09,30.07,30.04,10,10,7,14,8,,0.00,3,,286
2013-2-7,59,52,46,52,49,45,94,81,67,30.15,30.10,30.03,20,7,3,13,2,,0.00,6,,300
2013-2-8,53,52,50,45,43,41,82,71,62,30.01,29.95,29.90,20,13,5,17,12,,0.00,6,Rain,259
2013-2-9,59,49,39,43,42,37,93,70,55,30.07,30.05,30.01,20,13,10,13,4,,0.00,2,,240
2013-2-10,59,52,46,46,44,43,87,72,55,30.11,30.07,30.03,20,12,10,9,3,,0.00,5,,241
2013-2-11,64,53,42,46,44,41,93,64,45,30.19,30.15,30.11,20,15,10,12,4,,0.00,1,,243
2013-2-12,64,52,39,45,40,34,93,57,39,30.36,30.30,30.25,20,18,10,12,4,,0.00,0,,278
2013-2-13,66,54,42,52,43,36,82,62,37,30.27,30.21,30.15,20,12,10,10,4,,0.00,0,,285
2013-2-14,71,58,44,55,48,37,93,69,43,30.21,30.13,30.07,10,10,10,12,5,,0.00,1,,286
2013-2-15,80,64,48,41,34,21,62,31,16,30.19,30.16,30.13,20,18,10,12,3,,0.00,3,,290
2013-2-16,80,66,53,36,27,21,51,22,11,30.16,30.06,29.99,20,16,10,9,5,,0.00,2,,265
2013-2-17,66,57,48,54,52,48,100,83,60,30.03,29.98,29.94,20,10,0,9,3,,0.00,3,Fog,98
2013-2-18,62,58,53,50,48,46,82,70,59,30.08,30.02,29.97,20,12,10,12,6,,0.00,4,,126
2013-2-19,57,55,51,50,46,43,88,73,63,29.96,29.88,29.79,20,16,10,12,8,,0.00,7,,250
2013-2-20,59,54,48,50,39,30,88,55,44,29.94,29.87,29.81,20,19,10,17,11,23,0.00,1,,259
2013-2-21,60,54,48,48,45,43,82,67,52,30.07,30.03,29.99,20,12,10,12,6,,0.00,3,,276
2013-2-22,68,55,42,52,42,27,88,58,21,30.21,30.17,30.14,20,15,10,10,5,,0.00,0,,259
2013-2-23,64,60,55,52,46,37,88,62,42,30.12,30.02,29.94,20,14,10,12,5,,0.00,0,,266
2013-2-24,69,58,46,41,27,16,67,31,14,30.14,30.10,30.08,20,18,10,12,6,,0.00,0,,248
2013-2-25,69,56,42,43,35,23,70,40,17,30.22,30.15,30.08,20,18,10,9,5,,0.00,0,,254
2013-2-26,71,60,50,52,45,39,82,56,35,30.07,30.03,30.00,20,16,10,12,6,,0.00,0,,295
2013-2-27,75,70,64,34,22,16,32,18,11,30.24,30.22,30.19,20,20,20,12,3,,0.00,0,,294
2013-2-28,77,72,64,28,24,18,26,17,11,30.32,30.28,30.25,20,16,10,13,7,,0.00,0,,282